• Join FlightAware (Why Join?)
  • Login
  • US Flag 
10:38PM EDT


 

Airport Tracker/Info


-or-


 

Live Flight TrackerFlight Track Log ✈ SWA1802 ✈ 09-Jun-2013 ✈ KMDW - KLAX

Flight Track Log - Related Links

Times and Time Zones

All times are in EDT time to prevent confusion due to time zone crossing. See the SWA1802 flight status page for this flight to view local times or setup timezone preferences in your user account.

Time Position Orientation Groundspeed Altitude Reporting Facility
EDT Latitude Longitude Course Direction KTS MPH feet Rate Location/Type
06:43PM 41.7500 -87.7000 283° West 175 201 2,700  Level Chicago TRACON
06:44PM 41.7117 -87.7103 191° South 263 303 4,000 600 Climbing Chicago Center
06:45PM 41.7186 -87.8100 275° West 275 316 4,000 1,200 Level Chicago Center
06:46PM 41.7536 -87.9258 292° West 296 341 6,500 2,760 Climbing Chicago Center
06:47PM 41.7939 -88.0186 300° West 292 336 9,800 2,940 Climbing Chicago Center
06:48PM 41.7986 -88.1247 273° West 288 331 12,600 2,160 Climbing Chicago Center
06:49PM 41.9328 -88.6628 283° West  Level FlightAware Approximate
06:49PM 41.8008 -88.2397 272° West 308 354 14,300  Level Chicago Center
06:51PM 41.8058 -88.3964 273° West 350 403 17,000 2,640 Climbing Chicago Center
06:52PM 41.7875 -88.5283 259° West 361 415 19,800 2,400 Climbing Chicago Center
06:53PM 41.7608 -88.6508 254° West 349 402 22,000 1,740 Climbing Chicago Center
06:54PM 41.7333 -88.7808 254° West 358 412 23,400 1,680 Climbing Chicago Center
06:55PM 41.7069 -88.9475 258° West 382 440 25,500 1,740 Climbing Chicago Center
06:56PM 41.6883 -89.0911 260° West 393 452 27,000 1,200 Climbing Chicago Center
06:57PM 41.6711 -89.2378 261° West 401 461 28,100 780 Climbing Chicago Center
06:58PM 41.6503 -89.3939 260° West 425 489 28,700 780 Climbing Chicago Center
06:59PM 41.6289 -89.5628 260° West 444 511 29,800 1,260 Climbing Chicago Center
07:00PM 41.6069 -89.7239 260° West 444 511 31,400 1,500 Climbing Chicago Center
07:01PM 41.5872 -89.8817 261° West 433 498 33,000 1,320 Climbing Chicago Center
07:02PM 41.5619 -90.0678 260° West 428 493 34,200 840 Climbing Chicago Center
07:03PM 41.5414 -90.2264 260° West 434 499 34,800 720 Climbing Chicago Center
07:04PM 41.5192 -90.3867 260° West 440 506 35,800 540 Climbing Chicago Center
07:05PM 41.4964 -90.5461 259° West 440 506 36,000 60 Climbing Chicago Center
07:06PM 41.4719 -90.7106 259° West 452 520 36,000  Level Chicago Center
07:07PM 41.4492 -90.8711 259° West 446 513 36,000  Level Chicago Center
07:08PM 41.4214 -91.0633 259° West 442 509 36,000  Level Chicago Center
07:09PM 41.3983 -91.2272 259° West 450 518 36,000  Level Chicago Center
07:10PM 41.3728 -91.3981 259° West 451 519 36,000  Level Chicago Center
07:11PM 41.3475 -91.5619 258° West 453 521 36,000  Level Chicago Center
07:12PM 41.3239 -91.7256 259° West 453 521 36,000  Level Chicago Center
07:13PM 41.2986 -91.8881 258° West 453 521 36,000  Level Chicago Center
07:14PM 41.2689 -92.0819 259° West 449 517 36,000  Level Chicago Center
07:15PM 41.2436 -92.2442 258° West 452 520 36,000  Level Chicago Center
07:16PM 41.2167 -92.4194 259° West 451 519 36,000  Level Chicago Center
07:17PM 41.1906 -92.5794 258° West 449 517 36,000  Level Chicago Center
07:19PM 41.1439 -92.8722 258° West 454 522 36,000  Level Minneapolis Center
07:20PM 41.1186 -93.0322 258° West 452 520 36,000  Level Minneapolis Center
07:21PM 41.1133 -93.0619 257° West 449 517 36,000  Level Chicago Center
07:21PM 41.0925 -93.1869 258° West 443 510 36,000  Level Minneapolis Center
07:22PM 41.0681 -93.3383 258° West 433 498 36,000  Level Minneapolis Center
07:23PM 41.0411 -93.4950 257° West 438 504 36,000  Level Minneapolis Center
07:24PM 41.0106 -93.6828 258° West 439 505 36,000  Level Minneapolis Center
07:25PM 40.9839 -93.8375 257° West 438 504 36,000  Level Minneapolis Center
07:26PM 40.9581 -93.9928 258° West 437 503 36,000  Level Minneapolis Center
07:27PM 40.9300 -94.1483 257° West 439 505 36,000  Level Minneapolis Center
07:28PM 40.8964 -94.3358 257° West 441 507 36,000  Level Minneapolis Center
07:30PM 40.8692 -94.4919 257° West 440 506 36,000  Level Minneapolis Center
07:31PM 40.8406 -94.6419 256° West 443 510 36,000  Level Minneapolis Center
07:32PM 40.8114 -94.8022 257° West 447 514 36,000  Level Minneapolis Center
07:33PM 40.7764 -94.9958 257° West 449 517 36,000  Level Minneapolis Center
07:34PM 40.7467 -95.1597 257° West 454 522 36,000  Level Minneapolis Center
07:35PM 40.7169 -95.3214 256° West 454 522 36,000  Level Minneapolis Center
07:36PM 40.6872 -95.4847 257° West 454 522 36,000  Level Minneapolis Center
07:37PM 40.6553 -95.6497 256° West 459 528 36,000  Level Minneapolis Center
07:38PM 40.6258 -95.8114 257° West 455 524 36,000  Level Minneapolis Center
07:39PM 40.5944 -95.9731 256° West 454 522 36,000  Level Minneapolis Center
07:40PM 40.5581 -96.1642 256° West 449 517 36,000  Level Minneapolis Center
07:41PM 40.5272 -96.3233 256° West 446 513 36,000  Level Minneapolis Center
07:42PM 40.4967 -96.4819 256° West 446 513 36,000  Level Minneapolis Center
07:43PM 40.4656 -96.6367 255° West 442 509 36,000  Level Minneapolis Center
07:44PM 40.4353 -96.7908 256° West 438 504 36,000  Level Minneapolis Center
07:45PM 40.4047 -96.9422 255° West 433 498 36,000  Level Minneapolis Center
07:46PM 40.3744 -97.0933 255° West 430 495 36,000  Level Minneapolis Center
07:47PM 40.3381 -97.2739 255° West 428 493 36,000  Level Minneapolis Center
07:48PM 40.3064 -97.4242 255° West 425 489 36,000  Level Minneapolis Center
07:49PM 40.2756 -97.5736 255° West 424 488 36,000  Level Minneapolis Center
07:50PM 40.2450 -97.7228 255° West 424 488 36,000  Level Minneapolis Center
07:51PM 40.2131 -97.8706 254° West 422 486 36,000  Level Minneapolis Center
07:52PM 40.1819 -98.0200 255° West 424 488 36,000  Level Minneapolis Center
07:53PM 40.1503 -98.1703 255° West 426 490 36,000  Level Minneapolis Center
07:54PM 40.1117 -98.3503 254° West 427 491 36,000  Level Minneapolis Center
07:55PM 40.0783 -98.5006 254° West 429 494 36,000  Level Minneapolis Center
07:56PM 40.0464 -98.6514 255° West 429 494 36,000  Level Minneapolis Center
07:57PM 40.0136 -98.8033 254° West 431 496 36,000  Level Minneapolis Center
07:58PM 39.9931 -98.8956 254° West 433 498 36,000  Level Denver Center
07:59PM 39.9592 -99.0481 254° West 436 502 36,000  Level Denver Center
08:00PM 39.9261 -99.1958 254° West 427 491 36,000  Level Denver Center
08:01PM 39.8919 -99.3456 253° West 429 494 36,000  Level Denver Center
08:02PM 39.8794 -99.4067 255° West 432 497 36,000  Level Minneapolis Center
08:02PM 39.8586 -99.4958 253° West 431 496 36,000  Level Denver Center
08:03PM 39.8178 -99.6756 254° West 432 497 36,000  Level Denver Center
08:04PM 39.7833 -99.8272 254° West 435 501 36,000  Level Denver Center
08:05PM 39.7478 -99.9797 253° West 432 497 36,000  Level Denver Center
08:06PM 39.7144 -100.1261 254° West 437 503 36,000  Level Denver Center
08:07PM 39.6744 -100.2944 253° West 437 503 36,000  Level Denver Center
08:08PM 39.6403 -100.4397 253° West 439 505 36,000  Level Denver Center
08:09PM 39.5997 -100.6081 253° West 437 503 36,000  Level Denver Center
08:10PM 39.5656 -100.7519 253° West 437 503 36,000  Level Denver Center
08:11PM 39.5319 -100.8939 253° West 431 496 36,000  Level Denver Center
08:12PM 39.4917 -101.0608 253° West 434 499 36,000  Level Denver Center
08:13PM 39.4575 -101.2014 253° West 430 495 36,000  Level Denver Center
08:15PM 39.4172 -101.3667 253° West 431 496 36,000  Level Denver Center
08:16PM 39.3819 -101.5086 252° West 434 499 36,000  Level Denver Center
08:17PM 39.3408 -101.6731 252° West 431 496 36,000  Level Denver Center
08:18PM 39.3064 -101.8092 252° West 436 502 36,000  Level Denver Center
08:19PM 39.2656 -101.9739 252° West 432 497 36,000  Level Denver Center
08:20PM 39.2300 -102.1161 252° West 435 501 36,000  Level Denver Center
08:21PM 39.1875 -102.2806 252° West 436 502 36,000  Level Denver Center
08:22PM 39.1514 -102.4225 252° West 438 504 36,000  Level Denver Center
08:23PM 39.1097 -102.5856 252° West 431 496 36,000  Level Denver Center
08:24PM 39.0728 -102.7250 251° West 431 496 36,000  Level Denver Center
08:25PM 39.0344 -102.8731 252° West 435 501 36,000  Level Denver Center
08:26PM 38.9967 -103.0189 252° West 430 495 36,000  Level Denver Center
08:27PM 38.9583 -103.1642 251° West 429 494 36,000  Level Denver Center
08:28PM 38.9128 -103.3372 251° West 427 491 36,000  Level Denver Center
08:29PM 38.8733 -103.4844 251° West 432 497 36,000  Level Denver Center
08:30PM 38.8344 -103.6292 251° West 430 495 36,000  Level Denver Center
08:31PM 38.7969 -103.7686 251° West 432 497 36,000  Level Denver Center
08:32PM 38.7533 -103.9297 251° West 431 496 36,000  Level Denver Center
08:33PM 38.7156 -104.0667 251° West 428 493 36,000  Level Denver Center
08:34PM 38.6778 -104.2050 251° West 424 488 36,000  Level Denver Center
08:35PM 38.6381 -104.3478 250° West 425 489 36,000  Level Denver Center
08:36PM 38.5914 -104.5181 251° West 423 487 36,000  Level Denver Center
08:37PM 38.5508 -104.6614 250° West 427 491 36,000  Level Denver Center
08:38PM 38.5106 -104.8053 250° West 429 494 36,000  Level Denver Center
08:39PM 38.4703 -104.9486 250° West 429 494 36,000  Level Denver Center
08:40PM 38.4294 -105.0939 250° West 434 499 36,000  Level Denver Center
08:41PM 38.3875 -105.2375 250° West 434 499 36,000  Level Denver Center
08:42PM 38.3464 -105.3819 250° West 433 498 36,000  Level Denver Center
08:43PM 38.2986 -105.5494 250° West 434 499 36,000  Level Denver Center
08:44PM 38.2583 -105.6850 249° West 431 496 36,000  Level Denver Center
08:45PM 38.2111 -105.8472 250° West 437 503 36,000  Level Denver Center
08:46PM 38.1711 -105.9833 250° West 433 498 36,000  Level Denver Center
08:47PM 38.1242 -106.1408 249° West 428 493 36,000  Level Denver Center
08:49PM 38.0806 -106.2869 249° West 428 493 36,000  Level Denver Center
08:50PM 38.0442 -106.4111 250° West 426 490 36,000  Level Denver Center
08:51PM 37.9989 -106.5642 249° West 424 488 36,000  Level Denver Center
08:52PM 37.9581 -106.6969 249° West 422 486 36,000  Level Denver Center
08:53PM 37.9106 -106.8536 249° West 423 487 36,000  Level Denver Center
08:54PM 37.8692 -106.9892 249° West 430 495 36,000  Level Denver Center
08:55PM 37.8206 -107.1467 249° West 433 498 36,000  Level Denver Center
08:56PM 37.7764 -107.2917 249° West 429 494 36,000  Level Denver Center
08:57PM 37.7344 -107.4269 249° West 431 496 36,000  Level Denver Center
08:58PM 37.6928 -107.5597 248° West 428 493 36,000  Level Denver Center
08:59PM 37.6444 -107.7164 249° West 429 494 36,000  Level Denver Center
09:00PM 37.6025 -107.8511 249° West 431 496 36,000  Level Denver Center
09:01PM 37.5536 -108.0039 248° West 424 488 36,000  Level Denver Center
09:02PM 37.5119 -108.1356 248° West 422 486 36,000  Level Denver Center
09:03PM 37.4633 -108.2883 248° West 421 484 36,000  Level Denver Center
09:04PM 37.4203 -108.4208 248° West 427 491 36,000  Level Denver Center
09:05PM 37.3714 -108.5736 248° West 424 488 36,000  Level Denver Center
09:06PM 37.3281 -108.7047 247° West 424 488 36,000  Level Denver Center
09:07PM 37.2853 -108.8386 248° West 429 494 36,000  Level Denver Center
09:08PM 37.2422 -108.9711 248° West 429 494 36,000  Level Denver Center
09:09PM 37.1914 -109.1267 248° West 431 496 36,000  Level Denver Center
09:10PM 37.1403 -109.2808 247° West 430 495 36,000  Level Denver Center
09:11PM 37.0964 -109.4122 247° West 429 494 36,000  Level Denver Center
09:12PM 37.0100 -109.5367 229° Southwest 438 504 36,000  Level Denver Center
09:13PM 36.9103 -109.6067 209° Southwest 430 495 36,000  Level Denver Center
09:14PM 36.7939 -109.6908 210° Southwest 432 497 36,000  Level Denver Center
09:15PM 36.6947 -109.7611 210° Southwest 430 495 36,000  Level Denver Center
09:16PM 36.5792 -109.8433 210° Southwest 429 494 36,000  Level Denver Center
09:17PM 36.5006 -109.9425 225° Southwest 431 496 36,000  Level Denver Center
09:18PM 36.4692 -110.0778 254° West 427 491 36,000  Level Denver Center
09:19PM 36.4356 -110.2253 254° West 425 489 36,000  Level Denver Center
09:20PM 36.4025 -110.3669 254° West 427 491 36,000  Level Denver Center
09:21PM 36.3694 -110.5083 254° West 427 491 36,000  Level Denver Center
09:22PM 36.3289 -110.6786 254° West 429 494 36,000  Level Denver Center
09:23PM 36.2975 -110.8186 254° West 425 489 36,000  Level Denver Center
09:25PM 36.2631 -110.9603 253° West 426 490 36,000  Level Denver Center
09:26PM 36.2311 -111.1011 254° West 426 490 36,000  Level Denver Center
09:27PM 36.1972 -111.2419 253° West 427 491 36,000  Level Denver Center
09:28PM 36.1633 -111.3833 254° West 428 493 36,000  Level Denver Center
09:29PM 36.1322 -111.4931 251° West 424 488 36,000  Level Denver Center
09:30PM 36.0681 -111.6806 247° West 423 487 36,000  Level Denver Center
09:30PM 36.0583 -111.7106 248° West 422 486 36,000  Level Los Angeles Center
09:31PM 36.0058 -111.8711 248° West 422 486 36,000  Level Los Angeles Center
09:32PM 35.9633 -111.9961 247° West 421 484 36,000  Level Los Angeles Center
09:33PM 35.9192 -112.1278 248° West 421 484 36,000  Level Los Angeles Center
09:34PM 35.8756 -112.2617 248° West 422 486 36,000  Level Los Angeles Center
09:35PM 35.8297 -112.3939 247° West 423 487 36,000  Level Los Angeles Center
09:36PM 35.7761 -112.5519 247° West 422 486 36,000  Level Los Angeles Center
09:37PM 35.7317 -112.6842 248° West 421 484 36,000  Level Los Angeles Center
09:38PM 35.6808 -112.8325 247° West 423 487 36,000  Level Los Angeles Center
09:39PM 35.6381 -112.9578 247° West 423 487 36,000  Level Los Angeles Center
09:40PM 35.5922 -113.0894 247° West 420 483 36,000  Level Los Angeles Center
09:41PM 35.5469 -113.2208 247° West 416 479 36,000  Level Los Angeles Center
09:42PM 35.4986 -113.3592 247° West 416 479 36,000  Level Los Angeles Center
09:43PM 35.4531 -113.4883 247° West 416 479 36,000  Level Los Angeles Center
09:44PM 35.4072 -113.6175 247° West 417 480 36,000  Level Los Angeles Center
09:46PM 35.3528 -113.7728 247° West 417 480 36,000  Level Los Angeles Center
09:47PM 35.3058 -113.9039 246° West 422 486 36,000  Level Los Angeles Center
09:48PM 35.2608 -114.0322 247° West 417 480 36,000  Level Los Angeles Center
09:49PM 35.2128 -114.1647 246° West 421 484 36,000  Level Los Angeles Center
09:50PM 35.1653 -114.2964 246° West 423 487 36,000  Level Los Angeles Center
09:51PM 35.1181 -114.4278 246° West 423 487 36,000  Level Los Angeles Center
09:52PM 35.0586 -114.5897 246° West 429 494 36,000  Level Los Angeles Center
09:53PM 35.0119 -114.7233 247° West 427 491 36,000  Level Los Angeles Center
09:54PM 34.9622 -114.8567 246° West 431 496 36,000  Level Los Angeles Center
09:55PM 34.9139 -114.9908 246° West 432 497 36,000  Level Los Angeles Center
09:56PM 34.8642 -115.1217 245° Southwest 427 491 36,000  Level Los Angeles Center
09:57PM 34.8150 -115.2561 246° West 431 496 36,000  Level Los Angeles Center
09:58PM 34.7656 -115.3881 246° West 430 495 36,000  Level Los Angeles Center
09:59PM 34.7064 -115.5481 246° West 430 495 36,000  Level Los Angeles Center
10:00PM 34.6583 -115.6753 245° Southwest 428 493 36,000  Level Los Angeles Center
10:01PM 34.6100 -115.8058 246° West 423 487 36,000  Level Los Angeles Center
10:02PM 34.5603 -115.9356 245° Southwest 424 488 36,000  Level Los Angeles Center
10:03PM 34.5119 -116.0650 246° West 422 486 36,000 -840 Level Los Angeles Center
10:04PM 34.4631 -116.1933 245° Southwest 420 483 34,300 -2,160 Descending Los Angeles Center
10:05PM 34.4119 -116.3256 245° Southwest 430 495 31,600 -2,640 Descending Los Angeles Center
10:06PM 34.3503 -116.4853 245° Southwest 435 501 28,900 -2,040 Descending Los Angeles Center
10:07PM 34.3033 -116.6078 245° Southwest 406 467 27,500 -1,560 Descending Los Angeles Center
10:08PM 34.2564 -116.7281 245° Southwest 396 456 25,700 -1,920 Descending Los Angeles Center
10:09PM 34.2106 -116.8450 245° Southwest 387 445 23,600 -2,100 Descending Los Angeles Center
10:10PM 34.1658 -116.9586 245° Southwest 376 433 21,500 -2,100 Descending Los Angeles Center
10:11PM 34.1164 -117.0853 245° Southwest 367 422 19,300 -2,280 Descending Los Angeles Center
10:12PM 34.0708 -117.1897 242° Southwest 349 402 16,900 -2,220 Descending Los Angeles Center
10:13PM 34.0500 -117.3000 257° West 348 400 14,700 -1,740 Descending Southern California TRACON
10:14PM 34.0333 -117.4000 259° West 314 361 13,500 -1,620 Descending Southern California TRACON
10:15PM 34.0167 -117.5000 259° West 298 343 11,700 -1,560 Descending Southern California TRACON
10:16PM 34.0167 -117.6000 270° West 349 402 10,400 -900 Descending Southern California TRACON
10:17PM 34.0000 -117.7000 259° West 271 312 9,900 -960 Descending Southern California TRACON
10:18PM 34.0000 -117.8000 270° West 282 325 8,500 -1,380 Descending Southern California TRACON
10:19PM 33.9833 -117.8833 256° West 274 315 7,200 -1,200 Descending Southern California TRACON
10:20PM 33.9833 -117.9833 270° West 278 320 6,200 -1,020 Descending Southern California TRACON
10:21PM 33.9667 -118.0667 256° West 281 323 5,200 -1,200 Descending Southern California TRACON
10:22PM 33.9667 -118.1500 270° West 255 293 3,900 -1,260 Descending Southern California TRACON
10:23PM 33.9592 -118.1711 247° West 267 307 3,600 -1,140 Descending Los Angeles Center
10:24PM 33.9511 -118.2447 263° West 234 269 2,400 -1,080 Descending Los Angeles Center
10:25PM 33.9453 -118.3081 264° West 211 243 1,400 -960 Descending Los Angeles Center
10:26PM 33.9403 -118.3658 264° West 164 189 500 -540 Descending Los Angeles Center
10:27PM 33.9358 -118.4100 263° West 157 181 300 -240 Descending Los Angeles Center
10:29PM 33.9333 -118.4000 North  Level FlightAware Approximate